Cherokee — 9HBC7 — position and weather

sailwx.info

Track history (hours):
 
Tides and Currents Weather Stations Pressure Air Temp Water Temp Dewpoint Dewpoint Depression Visibility Wind Speed Wind Dir Waves Ship Positions

Cherokee

Last reported at 2017-Sep-16 06:45 UTC. Time now 2017-Sep-25 17:24 UTC.
Position N 37°22' E 025°55'.
Warning: this ship's position is 9 days out of date.

Length 140 m; draft 3.8 m.

Type: Cargo ship. MMSI: 215059000.

Date/timePositionNaut miles runAvg speedWind from/ knotsBaromVisibWave heightAir tempDewpointWater temp
2017-Sep-16 06:45N 37°22' E 025°55'2 8.0
2017-Sep-16 06:30N 37°23' E 025°54'4 7.7
2017-Sep-16 06:01N 37°27' E 025°51'4 7.8
2017-Sep-16 05:31N 37°31' E 025°51'4 7.9
2017-Sep-16 04:59N 37°35' E 025°50'6 7.9
2017-Sep-16 04:16N 37°40' E 025°49'2 7.8
2017-Sep-16 03:58N 37°43' E 025°48'  
2017-Sep-12 07:06N 42°51' E 029°22'1 7.3
2017-Sep-12 07:00N 42°52' E 029°22'4 7.3
2017-Sep-12 06:30N 42°55' E 029°23'4 7.3
2017-Sep-12 06:00N 42°59' E 029°23'4 7.3
2017-Sep-12 05:30N 43°03' E 029°24'4 7.2
2017-Sep-12 05:00N 43°06' E 029°24'4 7.1
2017-Sep-12 04:30N 43°10' E 029°24'3 7.0
2017-Sep-12 04:00N 43°13' E 029°25'3 6.9
2017-Sep-12 03:30N 43°17' E 029°25'3 6.8
2017-Sep-12 03:00N 43°20' E 029°26'3 6.9
2017-Sep-12 02:30N 43°23' E 029°26'4 7.1
2017-Sep-12 02:00N 43°27' E 029°27'4 7.1
2017-Sep-12 01:30N 43°30' E 029°27'4 7.1
2017-Sep-12 01:00N 43°34' E 029°28'3 6.9
2017-Sep-12 00:30N 43°37' E 029°28'4 7.2
2017-Sep-12 00:00N 43°41' E 029°29'4 7.1
2017-Sep-11 23:30N 43°45' E 029°30'4 7.1
2017-Sep-11 23:00N 43°48' E 029°30'3 7.0
2017-Sep-11 22:30N 43°52' E 029°30'3 6.8
2017-Sep-11 22:00N 43°55' E 029°30'3 7.0
2017-Sep-11 21:30N 43°56' E 029°25'3 6.8
2017-Sep-11 21:00N 43°57' E 029°21'3 6.8
2017-Sep-11 20:30N 43°58' E 029°16'3 6.9
2017-Sep-11 20:00N 43°60' E 029°12'4 7.0
2017-Sep-11 19:30N 44°01' E 029°07'4 7.0
2017-Sep-11 19:00N 44°01' E 029°03'3 6.5
2017-Sep-11 18:30N 44°03' E 028°59'3 6.9
2017-Sep-11 18:00N 44°04' E 028°54'4 6.7
2017-Sep-11 17:26N 44°06' E 028°49'3 6.0
2017-Sep-11 17:00N 44°07' E 028°46'0 0.3
2017-Sep-11 16:25N 44°07' E 028°46'0 0.0
2017-Sep-11 16:01N 44°07' E 028°46'0 0.0
2017-Sep-11 15:31N 44°07' E 028°46'0 0.0
2017-Sep-11 14:58N 44°07' E 028°46'0 0.0
2017-Sep-11 14:31N 44°07' E 028°46'0 0.0
2017-Sep-11 13:58N 44°07' E 028°46'0 0.0
2017-Sep-11 13:25N 44°07' E 028°46'0 0.1
2017-Sep-11 13:01N 44°07' E 028°46'0 0.0
2017-Sep-11 12:31N 44°07' E 028°46'0 0.0
2017-Sep-11 12:01N 44°07' E 028°46'0 0.0
2017-Sep-11 11:31N 44°07' E 028°46'0 0.0
2017-Sep-11 11:01N 44°07' E 028°46'0 0.0
2017-Sep-11 10:25N 44°07' E 028°46'0 0.0
2017-Sep-11 10:01N 44°07' E 028°46'0 0.0
2017-Sep-11 09:31N 44°07' E 028°46'0 0.1
2017-Sep-11 09:01N 44°07' E 028°46'0 0.0
2017-Sep-11 08:28N 44°07' E 028°46'0 0.0
2017-Sep-11 07:58N 44°07' E 028°46'0 0.1
2017-Sep-11 07:31N 44°07' E 028°46'0 0.0
2017-Sep-11 07:01N 44°07' E 028°46'0 0.0
2017-Sep-11 06:31N 44°07' E 028°46'0 0.0
2017-Sep-11 05:58N 44°07' E 028°46'0 0.0
2017-Sep-11 05:28N 44°07' E 028°46'0 0.0
2017-Sep-11 05:01N 44°07' E 028°46'0 0.0
2017-Sep-11 04:31N 44°07' E 028°46'0 0.0
2017-Sep-11 04:01N 44°07' E 028°46'0 0.0
2017-Sep-11 03:31N 44°07' E 028°46'0 0.0
2017-Sep-11 03:01N 44°07' E 028°46'0 0.0
2017-Sep-11 02:31N 44°07' E 028°46'0 0.0
2017-Sep-11 02:01N 44°07' E 028°46'0 0.0
2017-Sep-11 01:28N 44°07' E 028°46'0 0.0
2017-Sep-11 00:58N 44°07' E 028°46'0 0.0
2017-Sep-11 00:28N 44°07' E 028°46'0 0.0
2017-Sep-11 00:01N 44°07' E 028°46'0 0.0
2017-Sep-10 23:31N 44°07' E 028°46'0 0.0
2017-Sep-10 22:58N 44°07' E 028°46'0 0.0
2017-Sep-10 22:31N 44°07' E 028°46'0 0.0
2017-Sep-10 22:01N 44°07' E 028°46'0 0.0
2017-Sep-10 21:31N 44°07' E 028°46'0 0.0
2017-Sep-10 21:01N 44°07' E 028°46'0 0.0
2017-Sep-10 20:31N 44°07' E 028°46'0 0.0
2017-Sep-10 19:58N 44°07' E 028°46'0 0.1
2017-Sep-10 19:25N 44°07' E 028°46'0 0.1
2017-Sep-10 19:01N 44°07' E 028°46'0 0.1
2017-Sep-10 18:31N 44°07' E 028°46'0 0.0
2017-Sep-10 18:01N 44°07' E 028°46'0 0.0
2017-Sep-10 17:31N 44°07' E 028°46'0 0.0
2017-Sep-10 17:01N 44°07' E 028°46'0 0.0
2017-Sep-10 16:31N 44°07' E 028°46'0 0.0
2017-Sep-10 16:01N 44°07' E 028°46'0 0.0
2017-Sep-10 15:28N 44°07' E 028°46'0 0.0
2017-Sep-10 15:01N 44°07' E 028°46'0 0.0
2017-Sep-10 13:58N 44°07' E 028°46'0 0.0
2017-Sep-10 13:31N 44°07' E 028°46'0 0.0
2017-Sep-10 13:01N 44°07' E 028°46'0 0.0
2017-Sep-10 12:28N 44°07' E 028°46'0 0.1
2017-Sep-10 11:58N 44°07' E 028°46'0 0.0
2017-Sep-10 11:31N 44°07' E 028°46'0 0.0
2017-Sep-08 21:37N 44°07' E 028°46'0 0.0
2017-Sep-08 21:31N 44°07' E 028°46'0 0.0
2017-Sep-08 21:01N 44°07' E 028°46'0 0.0
2017-Sep-08 20:31N 44°07' E 028°46'0 0.0
2017-Sep-08 19:58N 44°07' E 028°46'0 0.0
2017-Sep-08 19:31N 44°07' E 028°46'0 0.0
2017-Sep-08 18:58N 44°07' E 028°46'0 0.0
2017-Sep-07 06:04N 44°07' E 028°46'0 0.1
2017-Sep-07 06:01N 44°07' E 028°46'0 0.0
2017-Sep-07 05:31N 44°07' E 028°46'0 0.0
2017-Sep-07 05:01N 44°07' E 028°46'0 0.0
2017-Sep-07 04:31N 44°07' E 028°46'0 0.0
2017-Sep-07 03:58N 44°07' E 028°46'0 0.0
2017-Sep-07 03:31N 44°07' E 028°46'0 0.0
2017-Sep-07 03:01N 44°07' E 028°46'0 0.0
2017-Sep-07 02:31N 44°07' E 028°46'0 0.0
2017-Sep-07 02:01N 44°07' E 028°46'0 0.0
2017-Sep-07 01:31N 44°07' E 028°46'0 0.0
2017-Sep-07 01:01N 44°07' E 028°46'0 0.0
2017-Sep-07 00:31N 44°07' E 028°46'0 0.0
2017-Sep-07 00:01N 44°07' E 028°46'0 0.0
2017-Sep-06 23:31N 44°07' E 028°46'0 0.0
2017-Sep-06 23:01N 44°07' E 028°46'0 0.0
2017-Sep-06 22:28N 44°07' E 028°46'0 0.0
2017-Sep-06 22:01N 44°07' E 028°46'0 0.0
2017-Sep-06 21:31N 44°07' E 028°46'0 0.0
2017-Sep-06 20:58N 44°07' E 028°46'0 0.0
2017-Sep-06 20:31N 44°07' E 028°46'0 0.0
2017-Sep-06 20:01N 44°07' E 028°46'0 0.0
2017-Sep-06 19:31N 44°07' E 028°46'0 0.1
2017-Sep-06 19:01N 44°07' E 028°46'0 0.1
2017-Sep-06 18:31N 44°07' E 028°46'0 0.0
2017-Sep-06 18:01N 44°07' E 028°46'0 0.0
2017-Sep-06 17:31N 44°07' E 028°46'0 0.0
2017-Sep-06 17:01N 44°07' E 028°46'0 0.1
2017-Sep-06 16:31N 44°07' E 028°46'0 0.1
2017-Sep-06 16:01N 44°07' E 028°46'0 0.0
2017-Sep-06 15:31N 44°07' E 028°46'0 0.1
2017-Sep-06 15:01N 44°07' E 028°46'0 0.0
2017-Sep-06 14:31N 44°07' E 028°46'0 0.2
2017-Sep-06 14:01N 44°07' E 028°46'0 0.1
2017-Sep-06 13:31N 44°07' E 028°46'0 0.1
2017-Sep-06 13:01N 44°07' E 028°46'0 0.0
2017-Sep-06 12:31N 44°07' E 028°46'0 0.0
2017-Sep-06 12:01N 44°07' E 028°46'0 0.0
2017-Sep-06 11:31N 44°07' E 028°46'0 0.0
2017-Sep-06 11:01N 44°07' E 028°46'0 0.0
2017-Sep-06 10:28N 44°07' E 028°46'0 0.0
2017-Sep-06 10:01N 44°07' E 028°46'0 0.0
2017-Sep-06 09:31N 44°07' E 028°46'0 0.0
2017-Sep-06 09:01N 44°07' E 028°46'0 0.0
2017-Sep-06 08:31N 44°07' E 028°46'0 0.0
2017-Sep-06 08:01N 44°07' E 028°46'0 0.0
2017-Sep-06 07:31N 44°07' E 028°46'0 0.0
2017-Sep-06 07:01N 44°07' E 028°46'  
Track history (hours):
 
Tides and Currents Weather Stations Pressure Air Temp Water Temp Dewpoint Dewpoint Depression Visibility Wind Speed Wind Dir Waves Ship Positions

Cherokee

Last reported at 2017-Sep-16 06:45 UTC. Time now 2017-Sep-25 17:24 UTC.
Position N 37°22' E 025°55'.
Warning: this ship's position is 9 days out of date.

Length 140 m; draft 3.8 m.

Type: Cargo ship. MMSI: 215059000.

Date/timePositionNaut miles runAvg speedWind from/ knotsBaromVisibWave heightAir tempDewpointWater temp
2017-Sep-16 06:45N 37°22' E 025°55'2 8.0
2017-Sep-16 06:30N 37°23' E 025°54'4 7.7
2017-Sep-16 06:01N 37°27' E 025°51'4 7.8
2017-Sep-16 05:31N 37°31' E 025°51'4 7.9
2017-Sep-16 04:59N 37°35' E 025°50'6 7.9
2017-Sep-16 04:16N 37°40' E 025°49'2 7.8
2017-Sep-16 03:58N 37°43' E 025°48'  
2017-Sep-12 07:06N 42°51' E 029°22'1 7.3
2017-Sep-12 07:00N 42°52' E 029°22'4 7.3
2017-Sep-12 06:30N 42°55' E 029°23'4 7.3
2017-Sep-12 06:00N 42°59' E 029°23'4 7.3
2017-Sep-12 05:30N 43°03' E 029°24'4 7.2
2017-Sep-12 05:00N 43°06' E 029°24'4 7.1
2017-Sep-12 04:30N 43°10' E 029°24'3 7.0
2017-Sep-12 04:00N 43°13' E 029°25'3 6.9
2017-Sep-12 03:30N 43°17' E 029°25'3 6.8
2017-Sep-12 03:00N 43°20' E 029°26'3 6.9
2017-Sep-12 02:30N 43°23' E 029°26'4 7.1
2017-Sep-12 02:00N 43°27' E 029°27'4 7.1
2017-Sep-12 01:30N 43°30' E 029°27'4 7.1
2017-Sep-12 01:00N 43°34' E 029°28'3 6.9
2017-Sep-12 00:30N 43°37' E 029°28'4 7.2
2017-Sep-12 00:00N 43°41' E 029°29'4 7.1
2017-Sep-11 23:30N 43°45' E 029°30'4 7.1
2017-Sep-11 23:00N 43°48' E 029°30'3 7.0
2017-Sep-11 22:30N 43°52' E 029°30'3 6.8
2017-Sep-11 22:00N 43°55' E 029°30'3 7.0
2017-Sep-11 21:30N 43°56' E 029°25'3 6.8
2017-Sep-11 21:00N 43°57' E 029°21'3 6.8
2017-Sep-11 20:30N 43°58' E 029°16'3 6.9
2017-Sep-11 20:00N 43°60' E 029°12'4 7.0
2017-Sep-11 19:30N 44°01' E 029°07'4 7.0
2017-Sep-11 19:00N 44°01' E 029°03'3 6.5
2017-Sep-11 18:30N 44°03' E 028°59'3 6.9
2017-Sep-11 18:00N 44°04' E 028°54'4 6.7
2017-Sep-11 17:26N 44°06' E 028°49'3 6.0
2017-Sep-11 17:00N 44°07' E 028°46'0 0.3
2017-Sep-11 16:25N 44°07' E 028°46'0 0.0
2017-Sep-11 16:01N 44°07' E 028°46'0 0.0
2017-Sep-11 15:31N 44°07' E 028°46'0 0.0
2017-Sep-11 14:58N 44°07' E 028°46'0 0.0
2017-Sep-11 14:31N 44°07' E 028°46'0 0.0
2017-Sep-11 13:58N 44°07' E 028°46'0 0.0
2017-Sep-11 13:25N 44°07' E 028°46'0 0.1
2017-Sep-11 13:01N 44°07' E 028°46'0 0.0
2017-Sep-11 12:31N 44°07' E 028°46'0 0.0
2017-Sep-11 12:01N 44°07' E 028°46'0 0.0
2017-Sep-11 11:31N 44°07' E 028°46'0 0.0
2017-Sep-11 11:01N 44°07' E 028°46'0 0.0
2017-Sep-11 10:25N 44°07' E 028°46'0 0.0
2017-Sep-11 10:01N 44°07' E 028°46'0 0.0
2017-Sep-11 09:31N 44°07' E 028°46'0 0.1
2017-Sep-11 09:01N 44°07' E 028°46'0 0.0
2017-Sep-11 08:28N 44°07' E 028°46'0 0.0
2017-Sep-11 07:58N 44°07' E 028°46'0 0.1
2017-Sep-11 07:31N 44°07' E 028°46'0 0.0
2017-Sep-11 07:01N 44°07' E 028°46'0 0.0
2017-Sep-11 06:31N 44°07' E 028°46'0 0.0
2017-Sep-11 05:58N 44°07' E 028°46'0 0.0
2017-Sep-11 05:28N 44°07' E 028°46'0 0.0
2017-Sep-11 05:01N 44°07' E 028°46'0 0.0
2017-Sep-11 04:31N 44°07' E 028°46'0 0.0
2017-Sep-11 04:01N 44°07' E 028°46'0 0.0
2017-Sep-11 03:31N 44°07' E 028°46'0 0.0
2017-Sep-11 03:01N 44°07' E 028°46'0 0.0
2017-Sep-11 02:31N 44°07' E 028°46'0 0.0
2017-Sep-11 02:01N 44°07' E 028°46'0 0.0
2017-Sep-11 01:28N 44°07' E 028°46'0 0.0
2017-Sep-11 00:58N 44°07' E 028°46'0 0.0
2017-Sep-11 00:28N 44°07' E 028°46'0 0.0
2017-Sep-11 00:01N 44°07' E 028°46'0 0.0
2017-Sep-10 23:31N 44°07' E 028°46'0 0.0
2017-Sep-10 22:58N 44°07' E 028°46'0 0.0
2017-Sep-10 22:31N 44°07' E 028°46'0 0.0
2017-Sep-10 22:01N 44°07' E 028°46'0 0.0
2017-Sep-10 21:31N 44°07' E 028°46'0 0.0
2017-Sep-10 21:01N 44°07' E 028°46'0 0.0
2017-Sep-10 20:31N 44°07' E 028°46'0 0.0
2017-Sep-10 19:58N 44°07' E 028°46'0 0.1
2017-Sep-10 19:25N 44°07' E 028°46'0 0.1
2017-Sep-10 19:01N 44°07' E 028°46'0 0.1
2017-Sep-10 18:31N 44°07' E 028°46'0 0.0
2017-Sep-10 18:01N 44°07' E 028°46'0 0.0
2017-Sep-10 17:31N 44°07' E 028°46'0 0.0
2017-Sep-10 17:01N 44°07' E 028°46'0 0.0
2017-Sep-10 16:31N 44°07' E 028°46'0 0.0
2017-Sep-10 16:01N 44°07' E 028°46'0 0.0
2017-Sep-10 15:28N 44°07' E 028°46'0 0.0
2017-Sep-10 15:01N 44°07' E 028°46'0 0.0
2017-Sep-10 13:58N 44°07' E 028°46'0 0.0
2017-Sep-10 13:31N 44°07' E 028°46'0 0.0
2017-Sep-10 13:01N 44°07' E 028°46'0 0.0
2017-Sep-10 12:28N 44°07' E 028°46'0 0.1
2017-Sep-10 11:58N 44°07' E 028°46'0 0.0
2017-Sep-10 11:31N 44°07' E 028°46'0 0.0
2017-Sep-08 21:37N 44°07' E 028°46'0 0.0
2017-Sep-08 21:31N 44°07' E 028°46'0 0.0
2017-Sep-08 21:01N 44°07' E 028°46'0 0.0
2017-Sep-08 20:31N 44°07' E 028°46'0 0.0
2017-Sep-08 19:58N 44°07' E 028°46'0 0.0
2017-Sep-08 19:31N 44°07' E 028°46'0 0.0
2017-Sep-08 18:58N 44°07' E 028°46'0 0.0
2017-Sep-07 06:04N 44°07' E 028°46'0 0.1
2017-Sep-07 06:01N 44°07' E 028°46'0 0.0
2017-Sep-07 05:31N 44°07' E 028°46'0 0.0
2017-Sep-07 05:01N 44°07' E 028°46'0 0.0
2017-Sep-07 04:31N 44°07' E 028°46'0 0.0
2017-Sep-07 03:58N 44°07' E 028°46'0 0.0
2017-Sep-07 03:31N 44°07' E 028°46'0 0.0
2017-Sep-07 03:01N 44°07' E 028°46'0 0.0
2017-Sep-07 02:31N 44°07' E 028°46'0 0.0
2017-Sep-07 02:01N 44°07' E 028°46'0 0.0
2017-Sep-07 01:31N 44°07' E 028°46'0 0.0
2017-Sep-07 01:01N 44°07' E 028°46'0 0.0
2017-Sep-07 00:31N 44°07' E 028°46'0 0.0
2017-Sep-07 00:01N 44°07' E 028°46'0 0.0
2017-Sep-06 23:31N 44°07' E 028°46'0 0.0
2017-Sep-06 23:01N 44°07' E 028°46'0 0.0
2017-Sep-06 22:28N 44°07' E 028°46'0 0.0
2017-Sep-06 22:01N 44°07' E 028°46'0 0.0
2017-Sep-06 21:31N 44°07' E 028°46'0 0.0
2017-Sep-06 20:58N 44°07' E 028°46'0 0.0
2017-Sep-06 20:31N 44°07' E 028°46'0 0.0
2017-Sep-06 20:01N 44°07' E 028°46'0 0.0
2017-Sep-06 19:31N 44°07' E 028°46'0 0.1
2017-Sep-06 19:01N 44°07' E 028°46'0 0.1
2017-Sep-06 18:31N 44°07' E 028°46'0 0.0
2017-Sep-06 18:01N 44°07' E 028°46'0 0.0
2017-Sep-06 17:31N 44°07' E 028°46'0 0.0
2017-Sep-06 17:01N 44°07' E 028°46'0 0.1
2017-Sep-06 16:31N 44°07' E 028°46'0 0.1
2017-Sep-06 16:01N 44°07' E 028°46'0 0.0
2017-Sep-06 15:31N 44°07' E 028°46'0 0.1
2017-Sep-06 15:01N 44°07' E 028°46'0 0.0
2017-Sep-06 14:31N 44°07' E 028°46'0 0.2
2017-Sep-06 14:01N 44°07' E 028°46'0 0.1
2017-Sep-06 13:31N 44°07' E 028°46'0 0.1
2017-Sep-06 13:01N 44°07' E 028°46'0 0.0
2017-Sep-06 12:31N 44°07' E 028°46'0 0.0
2017-Sep-06 12:01N 44°07' E 028°46'0 0.0
2017-Sep-06 11:31N 44°07' E 028°46'0 0.0
2017-Sep-06 11:01N 44°07' E 028°46'0 0.0
2017-Sep-06 10:28N 44°07' E 028°46'0 0.0
2017-Sep-06 10:01N 44°07' E 028°46'0 0.0
2017-Sep-06 09:31N 44°07' E 028°46'0 0.0
2017-Sep-06 09:01N 44°07' E 028°46'0 0.0
2017-Sep-06 08:31N 44°07' E 028°46'0 0.0
2017-Sep-06 08:01N 44°07' E 028°46'0 0.0
2017-Sep-06 07:31N 44°07' E 028°46'0 0.0
2017-Sep-06 07:01N 44°07' E 028°46'  

Dump ship's entire track history